sensor_id;sensor_type;location;lat;lon;timestamp;pressure;altitude;pressure_sealevel;temperature;humidity
13974;BME280;7060;43.770;4.008;2023-03-13T00:01:16;101102.78;;;13.20;59.79
13974;BME280;7060;43.770;4.008;2023-03-13T00:03:45;101108.31;;;13.18;60.15
13974;BME280;7060;43.770;4.008;2023-03-13T00:06:14;101115.53;;;13.18;60.03
13974;BME280;7060;43.770;4.008;2023-03-13T00:08:43;101120.03;;;13.17;59.93
13974;BME280;7060;43.770;4.008;2023-03-13T00:11:15;101125.63;;;13.06;60.51
13974;BME280;7060;43.770;4.008;2023-03-13T00:13:43;101089.69;;;12.72;60.71
13974;BME280;7060;43.770;4.008;2023-03-13T00:16:13;101120.66;;;12.94;60.99
13974;BME280;7060;43.770;4.008;2023-03-13T00:18:46;101117.19;;;12.83;60.83
13974;BME280;7060;43.770;4.008;2023-03-13T00:21:17;100963.16;;;11.86;61.36
13974;BME280;7060;43.770;4.008;2023-03-13T00:23:46;101126.38;;;12.81;61.41
13974;BME280;7060;43.770;4.008;2023-03-13T00:26:18;101131.88;;;12.79;61.00
13974;BME280;7060;43.770;4.008;2023-03-13T00:28:48;101139.94;;;12.79;61.01
13974;BME280;7060;43.770;4.008;2023-03-13T00:31:18;101137.69;;;12.75;61.45
13974;BME280;7060;43.770;4.008;2023-03-13T00:33:50;101126.41;;;12.71;61.85
13974;BME280;7060;43.770;4.008;2023-03-13T00:36:21;101137.06;;;12.63;61.60
13974;BME280;7060;43.770;4.008;2023-03-13T00:38:51;101128.63;;;12.58;62.00
13974;BME280;7060;43.770;4.008;2023-03-13T00:41:23;101117.03;;;12.58;61.86
13974;BME280;7060;43.770;4.008;2023-03-13T00:43:52;101115.22;;;12.58;61.92
13974;BME280;7060;43.770;4.008;2023-03-13T00:46:22;101115.59;;;12.63;61.82
13974;BME280;7060;43.770;4.008;2023-03-13T00:48:51;101107.09;;;12.68;62.28
13974;BME280;7060;43.770;4.008;2023-03-13T00:51:20;101115.84;;;12.70;62.47
13974;BME280;7060;43.770;4.008;2023-03-13T00:53:49;101111.31;;;12.70;62.27
13974;BME280;7060;43.770;4.008;2023-03-13T00:56:19;101125.72;;;12.69;62.69
13974;BME280;7060;43.770;4.008;2023-03-13T00:58:50;101100.44;;;12.44;62.64
13974;BME280;7060;43.770;4.008;2023-03-13T01:01:20;101108.06;;;12.49;62.87
13974;BME280;7060;43.770;4.008;2023-03-13T01:03:51;101139.06;;;12.61;62.67
13974;BME280;7060;43.770;4.008;2023-03-13T01:06:22;101136.38;;;12.61;62.71
13974;BME280;7060;43.770;4.008;2023-03-13T01:08:52;101137.38;;;12.60;62.59
13974;BME280;7060;43.770;4.008;2023-03-13T01:11:23;101133.88;;;12.50;62.64
13974;BME280;7060;43.770;4.008;2023-03-13T01:13:57;101134.75;;;12.41;62.62
13974;BME280;7060;43.770;4.008;2023-03-13T01:16:27;101128.03;;;12.37;62.71
13974;BME280;7060;43.770;4.008;2023-03-13T01:18:59;101132.41;;;12.38;62.70
13974;BME280;7060;43.770;4.008;2023-03-13T01:21:29;101126.03;;;12.39;62.94
13974;BME280;7060;43.770;4.008;2023-03-13T01:23:58;101130.16;;;12.33;63.06
13974;BME280;7060;43.770;4.008;2023-03-13T01:26:26;101124.56;;;12.17;63.64
13974;BME280;7060;43.770;4.008;2023-03-13T01:28:56;101110.75;;;12.02;63.40
13974;BME280;7060;43.770;4.008;2023-03-13T01:31:27;101080.38;;;11.74;64.08
13974;BME280;7060;43.770;4.008;2023-03-13T01:33:59;101113.03;;;11.97;63.79
13974;BME280;7060;43.770;4.008;2023-03-13T01:36:28;101096.88;;;11.79;63.57
13974;BME280;7060;43.770;4.008;2023-03-13T01:38:58;101123.91;;;11.86;64.03
13974;BME280;7060;43.770;4.008;2023-03-13T01:41:29;101112.19;;;11.87;63.86
13974;BME280;7060;43.770;4.008;2023-03-13T01:44:00;101114.06;;;11.77;64.15
13974;BME280;7060;43.770;4.008;2023-03-13T01:46:32;101111.41;;;11.67;64.33
13974;BME280;7060;43.770;4.008;2023-03-13T01:49:10;101107.75;;;11.59;64.30
13974;BME280;7060;43.770;4.008;2023-03-13T01:52:01;101097.50;;;11.44;64.64
13974;BME280;7060;43.770;4.008;2023-03-13T01:54:37;101089.88;;;11.49;64.32
13974;BME280;7060;43.770;4.008;2023-03-13T01:57:11;101073.84;;;11.30;64.28
13974;BME280;7060;43.770;4.008;2023-03-13T01:59:45;101093.53;;;11.39;64.34
13974;BME280;7060;43.770;4.008;2023-03-13T02:02:15;101091.44;;;11.42;64.51
13974;BME280;7060;43.770;4.008;2023-03-13T02:04:46;101089.75;;;11.41;64.35
13974;BME280;7060;43.770;4.008;2023-03-13T02:07:19;101079.16;;;11.40;64.26
13974;BME280;7060;43.770;4.008;2023-03-13T02:09:52;101080.72;;;11.33;64.25
13974;BME280;7060;43.770;4.008;2023-03-13T02:12:25;101094.84;;;11.25;64.20
13974;BME280;7060;43.770;4.008;2023-03-13T02:14:59;101039.75;;;10.84;64.42
13974;BME280;7060;43.770;4.008;2023-03-13T02:17:29;101098.22;;;11.17;64.54
13974;BME280;7060;43.770;4.008;2023-03-13T02:20:01;101103.69;;;11.06;64.67
13974;BME280;7060;43.770;4.008;2023-03-13T02:22:36;101112.28;;;10.91;65.32
13974;BME280;7060;43.770;4.008;2023-03-13T02:25:11;101093.09;;;10.76;65.77
13974;BME280;7060;43.770;4.008;2023-03-13T02:27:50;101102.06;;;10.65;66.08
13974;BME280;7060;43.770;4.008;2023-03-13T02:30:20;101097.00;;;10.72;66.18
13974;BME280;7060;43.770;4.008;2023-03-13T02:32:49;101085.47;;;10.71;65.69
13974;BME280;7060;43.770;4.008;2023-03-13T02:35:20;101086.28;;;10.62;65.92
13974;BME280;7060;43.770;4.008;2023-03-13T02:37:54;101083.59;;;10.52;65.96
13974;BME280;7060;43.770;4.008;2023-03-13T02:40:27;101041.19;;;10.19;66.22
13974;BME280;7060;43.770;4.008;2023-03-13T02:43:00;101081.31;;;10.38;66.31
13974;BME280;7060;43.770;4.008;2023-03-13T02:45:30;101081.72;;;10.34;66.70
13974;BME280;7060;43.770;4.008;2023-03-13T02:47:58;101078.78;;;10.37;66.45
13974;BME280;7060;43.770;4.008;2023-03-13T02:50:27;101079.47;;;10.39;65.93
13974;BME280;7060;43.770;4.008;2023-03-13T02:52:59;101079.88;;;10.34;66.11
13974;BME280;7060;43.770;4.008;2023-03-13T02:55:34;101088.03;;;10.33;66.38
13974;BME280;7060;43.770;4.008;2023-03-13T02:58:06;101076.75;;;10.29;66.18
13974;BME280;7060;43.770;4.008;2023-03-13T03:00:36;101070.44;;;10.21;66.19
13974;BME280;7060;43.770;4.008;2023-03-13T03:03:04;101073.50;;;10.16;66.34
13974;BME280;7060;43.770;4.008;2023-03-13T03:05:33;101068.25;;;10.05;66.72
13974;BME280;7060;43.770;4.008;2023-03-13T03:08:01;101065.69;;;10.03;66.50
13974;BME280;7060;43.770;4.008;2023-03-13T03:10:30;101061.91;;;10.06;66.34
13974;BME280;7060;43.770;4.008;2023-03-13T03:12:58;101041.25;;;10.08;65.96
13974;BME280;7060;43.770;4.008;2023-03-13T03:15:30;101045.91;;;10.06;66.38
13974;BME280;7060;43.770;4.008;2023-03-13T03:17:58;101048.31;;;10.09;66.06
13974;BME280;7060;43.770;4.008;2023-03-13T03:20:27;101045.03;;;10.05;66.08
13974;BME280;7060;43.770;4.008;2023-03-13T03:22:55;101036.97;;;9.96;66.20
13974;BME280;7060;43.770;4.008;2023-03-13T03:25:25;101041.91;;;9.91;66.15
13974;BME280;7060;43.770;4.008;2023-03-13T03:27:54;101037.53;;;9.90;66.68
13974;BME280;7060;43.770;4.008;2023-03-13T03:30:22;101042.03;;;9.89;66.24
13974;BME280;7060;43.770;4.008;2023-03-13T03:32:52;101058.72;;;9.81;66.66
13974;BME280;7060;43.770;4.008;2023-03-13T03:35:22;101058.59;;;9.83;66.58
13974;BME280;7060;43.770;4.008;2023-03-13T03:37:50;101067.72;;;9.80;66.77
13974;BME280;7060;43.770;4.008;2023-03-13T03:40:20;101067.00;;;9.78;66.95
13974;BME280;7060;43.770;4.008;2023-03-13T03:42:49;101056.00;;;9.72;66.97
13974;BME280;7060;43.770;4.008;2023-03-13T03:45:17;101061.16;;;9.64;66.95
13974;BME280;7060;43.770;4.008;2023-03-13T03:47:46;101045.94;;;9.55;67.12
13974;BME280;7060;43.770;4.008;2023-03-13T03:50:16;101046.31;;;9.50;67.11
13974;BME280;7060;43.770;4.008;2023-03-13T03:52:53;101045.56;;;9.38;67.26
13974;BME280;7060;43.770;4.008;2023-03-13T03:55:24;101056.75;;;9.32;68.12
13974;BME280;7060;43.770;4.008;2023-03-13T03:57:52;101047.25;;;9.39;67.58
13974;BME280;7060;43.770;4.008;2023-03-13T04:00:42;101040.06;;;9.40;67.70
13974;BME280;7060;43.770;4.008;2023-03-13T04:03:13;101019.78;;;9.28;67.68
13974;BME280;7060;43.770;4.008;2023-03-13T04:05:44;101025.25;;;9.26;68.09
13974;BME280;7060;43.770;4.008;2023-03-13T04:08:12;101027.44;;;9.21;67.71
13974;BME280;7060;43.770;4.008;2023-03-13T04:10:41;101037.41;;;9.19;68.01
13974;BME280;7060;43.770;4.008;2023-03-13T04:13:10;101036.66;;;9.17;68.36
13974;BME280;7060;43.770;4.008;2023-03-13T04:15:39;101029.28;;;9.21;68.18
13974;BME280;7060;43.770;4.008;2023-03-13T04:18:10;101029.16;;;9.22;67.99
13974;BME280;7060;43.770;4.008;2023-03-13T04:20:39;101034.75;;;9.19;67.80
13974;BME280;7060;43.770;4.008;2023-03-13T04:23:10;101030.59;;;9.15;67.59
13974;BME280;7060;43.770;4.008;2023-03-13T04:25:38;101034.66;;;9.09;68.54
13974;BME280;7060;43.770;4.008;2023-03-13T04:28:10;101022.28;;;9.08;68.29
13974;BME280;7060;43.770;4.008;2023-03-13T04:30:43;101021.19;;;9.11;68.11
13974;BME280;7060;43.770;4.008;2023-03-13T04:33:32;101018.56;;;9.00;68.30
13974;BME280;7060;43.770;4.008;2023-03-13T04:36:18;101029.03;;;8.92;68.96
13974;BME280;7060;43.770;4.008;2023-03-13T04:39:11;101039.09;;;8.88;68.58
13974;BME280;7060;43.770;4.008;2023-03-13T04:42:11;101036.41;;;8.88;68.68
13974;BME280;7060;43.770;4.008;2023-03-13T04:45:03;101038.72;;;8.93;68.37
13974;BME280;7060;43.770;4.008;2023-03-13T04:47:51;101030.34;;;8.97;68.12
13974;BME280;7060;43.770;4.008;2023-03-13T04:50:38;101037.50;;;8.97;68.75
13974;BME280;7060;43.770;4.008;2023-03-13T04:53:19;101028.44;;;8.88;68.71
13974;BME280;7060;43.770;4.008;2023-03-13T04:56:04;101026.34;;;8.92;68.63
13974;BME280;7060;43.770;4.008;2023-03-13T04:59:02;101035.06;;;8.94;68.69
13974;BME280;7060;43.770;4.008;2023-03-13T05:01:55;101036.75;;;8.95;68.03
13974;BME280;7060;43.770;4.008;2023-03-13T05:04:44;101040.41;;;8.94;68.04
13974;BME280;7060;43.770;4.008;2023-03-13T05:07:44;101034.16;;;8.83;69.21
13974;BME280;7060;43.770;4.008;2023-03-13T05:10:31;101026.41;;;8.80;69.33
13974;BME280;7060;43.770;4.008;2023-03-13T05:13:33;101017.47;;;8.70;69.20
13974;BME280;7060;43.770;4.008;2023-03-13T05:16:34;101029.38;;;8.66;69.77
13974;BME280;7060;43.770;4.008;2023-03-13T05:19:12;101027.41;;;8.68;70.02
13974;BME280;7060;43.770;4.008;2023-03-13T05:21:59;101025.59;;;8.69;69.98
13974;BME280;7060;43.770;4.008;2023-03-13T05:24:48;101021.63;;;8.63;69.31
13974;BME280;7060;43.770;4.008;2023-03-13T05:27:30;101019.66;;;8.65;69.19
13974;BME280;7060;43.770;4.008;2023-03-13T05:30:33;101011.81;;;8.64;69.86
13974;BME280;7060;43.770;4.008;2023-03-13T05:33:27;101001.25;;;8.62;69.34
13974;BME280;7060;43.770;4.008;2023-03-13T05:36:14;100992.81;;;8.57;69.36
13974;BME280;7060;43.770;4.008;2023-03-13T05:39:00;100988.59;;;8.55;70.30
13974;BME280;7060;43.770;4.008;2023-03-13T05:41:42;100983.59;;;8.61;69.98
13974;BME280;7060;43.770;4.008;2023-03-13T05:44:27;100981.84;;;8.71;69.66
13974;BME280;7060;43.770;4.008;2023-03-13T05:47:16;100982.69;;;8.72;69.48
13974;BME280;7060;43.770;4.008;2023-03-13T05:50:04;100982.81;;;8.70;69.21
13974;BME280;7060;43.770;4.008;2023-03-13T05:52:48;100989.63;;;8.63;69.16
13974;BME280;7060;43.770;4.008;2023-03-13T05:55:55;101000.41;;;8.62;69.55
13974;BME280;7060;43.770;4.008;2023-03-13T05:58:39;101004.66;;;8.64;68.92
13974;BME280;7060;43.770;4.008;2023-03-13T06:01:33;101013.88;;;8.60;69.51
13974;BME280;7060;43.770;4.008;2023-03-13T06:04:16;101014.16;;;8.57;69.69
13974;BME280;7060;43.770;4.008;2023-03-13T06:06:45;101006.66;;;8.51;70.48
13974;BME280;7060;43.770;4.008;2023-03-13T06:09:15;101004.00;;;8.51;70.36
13974;BME280;7060;43.770;4.008;2023-03-13T06:11:44;101003.25;;;8.49;69.86
13974;BME280;7060;43.770;4.008;2023-03-13T06:14:12;101012.81;;;8.52;70.41
13974;BME280;7060;43.770;4.008;2023-03-13T06:17:07;101003.88;;;8.53;70.25
13974;BME280;7060;43.770;4.008;2023-03-13T06:19:37;100992.94;;;8.56;70.29
13974;BME280;7060;43.770;4.008;2023-03-13T06:22:06;100995.50;;;8.57;70.07
13974;BME280;7060;43.770;4.008;2023-03-13T06:24:35;101000.66;;;8.59;70.51
13974;BME280;7060;43.770;4.008;2023-03-13T06:27:10;100998.22;;;8.67;70.79
13974;BME280;7060;43.770;4.008;2023-03-13T06:29:38;100999.16;;;8.77;70.33
13974;BME280;7060;43.770;4.008;2023-03-13T06:32:07;100983.41;;;8.74;69.86
13974;BME280;7060;43.770;4.008;2023-03-13T06:34:37;101008.66;;;8.91;69.74
13974;BME280;7060;43.770;4.008;2023-03-13T06:37:05;101007.44;;;8.95;69.33
13974;BME280;7060;43.770;4.008;2023-03-13T06:39:34;101008.88;;;8.99;69.74
13974;BME280;7060;43.770;4.008;2023-03-13T06:42:03;101006.22;;;8.99;69.70
13974;BME280;7060;43.770;4.008;2023-03-13T06:44:31;101000.81;;;9.10;70.19
13974;BME280;7060;43.770;4.008;2023-03-13T06:47:00;101008.06;;;9.19;70.06
13974;BME280;7060;43.770;4.008;2023-03-13T06:49:28;101005.72;;;9.26;69.98
13974;BME280;7060;43.770;4.008;2023-03-13T06:51:58;101002.53;;;9.32;69.74
13974;BME280;7060;43.770;4.008;2023-03-13T06:54:27;100984.84;;;9.31;69.58
13974;BME280;7060;43.770;4.008;2023-03-13T06:56:55;100998.22;;;9.40;70.16
13974;BME280;7060;43.770;4.008;2023-03-13T06:59:24;101012.00;;;9.45;70.20
13974;BME280;7060;43.770;4.008;2023-03-13T07:01:52;101006.16;;;9.51;70.15
13974;BME280;7060;43.770;4.008;2023-03-13T07:04:20;101006.94;;;9.63;70.21
13974;BME280;7060;43.770;4.008;2023-03-13T07:06:50;100999.34;;;9.68;70.57
13974;BME280;7060;43.770;4.008;2023-03-13T07:09:21;100999.94;;;9.72;70.46
13974;BME280;7060;43.770;4.008;2023-03-13T07:11:57;101001.22;;;9.77;70.91
13974;BME280;7060;43.770;4.008;2023-03-13T07:14:25;100997.75;;;9.87;70.71
13974;BME280;7060;43.770;4.008;2023-03-13T07:16:54;101000.75;;;9.93;70.83
13974;BME280;7060;43.770;4.008;2023-03-13T07:19:24;101007.34;;;9.99;71.03
13974;BME280;7060;43.770;4.008;2023-03-13T07:21:53;101011.88;;;10.08;70.67
13974;BME280;7060;43.770;4.008;2023-03-13T07:24:24;101006.56;;;10.17;70.61
13974;BME280;7060;43.770;4.008;2023-03-13T07:26:53;101006.84;;;10.24;70.41
13974;BME280;7060;43.770;4.008;2023-03-13T07:29:33;100999.41;;;10.28;70.53
13974;BME280;7060;43.770;4.008;2023-03-13T07:32:01;101009.81;;;10.31;70.02
13974;BME280;7060;43.770;4.008;2023-03-13T07:34:30;101016.31;;;10.38;70.15
13974;BME280;7060;43.770;4.008;2023-03-13T07:36:59;101009.59;;;10.43;69.85
13974;BME280;7060;43.770;4.008;2023-03-13T07:39:29;100992.13;;;10.49;69.63
13974;BME280;7060;43.770;4.008;2023-03-13T07:41:57;100989.44;;;10.49;69.75
13974;BME280;7060;43.770;4.008;2023-03-13T07:44:25;100991.72;;;10.53;69.66
13974;BME280;7060;43.770;4.008;2023-03-13T07:46:58;100994.81;;;10.59;69.80
13974;BME280;7060;43.770;4.008;2023-03-13T07:49:26;101000.72;;;10.62;69.86
13974;BME280;7060;43.770;4.008;2023-03-13T07:51:55;101009.88;;;10.69;69.77
13974;BME280;7060;43.770;4.008;2023-03-13T07:54:23;101015.53;;;10.76;69.85
13974;BME280;7060;43.770;4.008;2023-03-13T07:56:53;101016.25;;;10.88;69.61
13974;BME280;7060;43.770;4.008;2023-03-13T07:59:22;100999.38;;;10.97;69.88
13974;BME280;7060;43.770;4.008;2023-03-13T08:01:50;101001.16;;;11.06;70.06
13974;BME280;7060;43.770;4.008;2023-03-13T08:04:19;100988.06;;;11.12;70.09
13974;BME280;7060;43.770;4.008;2023-03-13T08:06:47;100989.75;;;11.23;70.24
13974;BME280;7060;43.770;4.008;2023-03-13T08:09:17;100986.06;;;11.34;69.82
13974;BME280;7060;43.770;4.008;2023-03-13T08:11:46;100984.19;;;11.44;69.70
13974;BME280;7060;43.770;4.008;2023-03-13T08:14:16;100993.75;;;11.56;69.90
13974;BME280;7060;43.770;4.008;2023-03-13T08:16:46;100994.69;;;11.65;69.08
13974;BME280;7060;43.770;4.008;2023-03-13T08:19:14;100994.97;;;11.71;69.10
13974;BME280;7060;43.770;4.008;2023-03-13T08:21:44;100996.22;;;11.77;68.83
13974;BME280;7060;43.770;4.008;2023-03-13T08:24:13;100989.88;;;11.78;67.73
13974;BME280;7060;43.770;4.008;2023-03-13T08:26:42;100984.25;;;11.71;67.05
13974;BME280;7060;43.770;4.008;2023-03-13T08:29:11;100988.19;;;11.77;67.08
13974;BME280;7060;43.770;4.008;2023-03-13T08:31:44;100994.78;;;11.82;67.39
13974;BME280;7060;43.770;4.008;2023-03-13T08:34:16;100992.34;;;11.89;67.62
13974;BME280;7060;43.770;4.008;2023-03-13T08:36:46;100999.78;;;11.95;67.27
13974;BME280;7060;43.770;4.008;2023-03-13T08:39:16;101005.25;;;12.03;67.12
13974;BME280;7060;43.770;4.008;2023-03-13T08:41:46;100998.31;;;12.10;67.13
13974;BME280;7060;43.770;4.008;2023-03-13T08:44:17;100980.69;;;12.08;66.82
13974;BME280;7060;43.770;4.008;2023-03-13T08:46:49;100981.06;;;12.23;66.05
13974;BME280;7060;43.770;4.008;2023-03-13T08:49:18;100969.03;;;12.27;66.54
13974;BME280;7060;43.770;4.008;2023-03-13T08:51:48;100976.19;;;12.36;66.30
13974;BME280;7060;43.770;4.008;2023-03-13T08:54:16;100977.09;;;12.44;66.11
13974;BME280;7060;43.770;4.008;2023-03-13T08:56:45;100954.81;;;12.44;65.91
13974;BME280;7060;43.770;4.008;2023-03-13T08:59:13;100972.22;;;12.58;65.23
13974;BME280;7060;43.770;4.008;2023-03-13T09:01:42;100987.41;;;12.67;65.44
13974;BME280;7060;43.770;4.008;2023-03-13T09:04:13;100973.19;;;12.74;65.35
13974;BME280;7060;43.770;4.008;2023-03-13T09:06:42;100969.91;;;12.80;64.61
13974;BME280;7060;43.770;4.008;2023-03-13T09:09:12;100961.94;;;12.88;64.56
13974;BME280;7060;43.770;4.008;2023-03-13T09:11:42;100953.63;;;13.00;64.84
13974;BME280;7060;43.770;4.008;2023-03-13T09:14:15;100946.00;;;13.13;64.45
13974;BME280;7060;43.770;4.008;2023-03-13T09:16:44;100945.22;;;13.20;63.96
13974;BME280;7060;43.770;4.008;2023-03-13T09:19:17;100948.94;;;13.28;63.76
13974;BME280;7060;43.770;4.008;2023-03-13T09:21:46;100941.94;;;13.35;62.88
13974;BME280;7060;43.770;4.008;2023-03-13T09:24:15;100930.06;;;13.37;62.99
13974;BME280;7060;43.770;4.008;2023-03-13T09:26:44;100921.25;;;13.45;63.10
13974;BME280;7060;43.770;4.008;2023-03-13T09:29:27;100918.25;;;13.48;63.44
13974;BME280;7060;43.770;4.008;2023-03-13T09:31:56;100922.09;;;13.53;63.47
13974;BME280;7060;43.770;4.008;2023-03-13T09:34:25;100915.09;;;13.61;63.54
13974;BME280;7060;43.770;4.008;2023-03-13T09:36:54;100912.78;;;13.66;63.48
13974;BME280;7060;43.770;4.008;2023-03-13T09:39:22;100903.06;;;13.73;63.38
13974;BME280;7060;43.770;4.008;2023-03-13T09:41:54;100905.59;;;13.82;63.65
13974;BME280;7060;43.770;4.008;2023-03-13T09:44:27;100902.94;;;13.90;62.71
13974;BME280;7060;43.770;4.008;2023-03-13T09:47:01;100894.56;;;13.94;62.81
13974;BME280;7060;43.770;4.008;2023-03-13T09:49:37;100768.06;;;13.29;63.17
13974;BME280;7060;43.770;4.008;2023-03-13T09:52:14;100886.53;;;14.10;63.17
13974;BME280;7060;43.770;4.008;2023-03-13T09:54:47;100883.69;;;14.19;63.12
13974;BME280;7060;43.770;4.008;2023-03-13T09:57:24;100842.84;;;14.00;62.94
13974;BME280;7060;43.770;4.008;2023-03-13T09:59:57;100874.63;;;14.37;62.58
13974;BME280;7060;43.770;4.008;2023-03-13T10:02:34;100875.00;;;14.50;62.69
13974;BME280;7060;43.770;4.008;2023-03-13T10:05:13;100859.38;;;14.62;62.86
13974;BME280;7060;43.770;4.008;2023-03-13T10:07:43;100868.28;;;14.70;62.79
13974;BME280;7060;43.770;4.008;2023-03-13T10:10:14;100841.03;;;14.65;62.65
13974;BME280;7060;43.770;4.008;2023-03-13T10:12:45;100866.56;;;14.94;61.73
13974;BME280;7060;43.770;4.008;2023-03-13T10:15:33;100853.44;;;14.99;61.63
13974;BME280;7060;43.770;4.008;2023-03-13T10:18:13;100850.72;;;15.07;62.20
13974;BME280;7060;43.770;4.008;2023-03-13T10:20:45;100844.97;;;15.18;62.03
13974;BME280;7060;43.770;4.008;2023-03-13T10:23:19;100842.25;;;15.26;61.27
13974;BME280;7060;43.770;4.008;2023-03-13T10:25:48;100836.69;;;15.28;61.24
13974;BME280;7060;43.770;4.008;2023-03-13T10:28:17;100837.84;;;15.33;61.33
13974;BME280;7060;43.770;4.008;2023-03-13T10:30:49;100828.91;;;15.41;61.33
13974;BME280;7060;43.770;4.008;2023-03-13T10:33:23;100811.09;;;15.32;61.34
13974;BME280;7060;43.770;4.008;2023-03-13T10:36:05;100810.16;;;15.47;61.64
13974;BME280;7060;43.770;4.008;2023-03-13T10:38:47;100811.28;;;15.61;62.07
13974;BME280;7060;43.770;4.008;2023-03-13T10:41:25;100796.56;;;15.80;61.69
13974;BME280;7060;43.770;4.008;2023-03-13T10:43:58;100789.47;;;16.02;61.97
13974;BME280;7060;43.770;4.008;2023-03-13T10:46:28;100797.19;;;16.27;61.91
13974;BME280;7060;43.770;4.008;2023-03-13T10:49:00;100792.59;;;16.51;61.66
13974;BME280;7060;43.770;4.008;2023-03-13T10:51:36;100791.00;;;16.65;61.09
13974;BME280;7060;43.770;4.008;2023-03-13T10:54:21;100790.63;;;16.68;60.31
13974;BME280;7060;43.770;4.008;2023-03-13T10:56:50;100795.53;;;16.64;59.82
13974;BME280;7060;43.770;4.008;2023-03-13T10:59:22;100797.81;;;16.52;60.20
13974;BME280;7060;43.770;4.008;2023-03-13T11:01:51;100796.06;;;16.45;61.25
13974;BME280;7060;43.770;4.008;2023-03-13T11:04:29;100778.91;;;16.38;61.51
13974;BME280;7060;43.770;4.008;2023-03-13T11:07:03;100749.69;;;16.04;61.97
13974;BME280;7060;43.770;4.008;2023-03-13T11:09:35;100776.06;;;16.16;62.40
13974;BME280;7060;43.770;4.008;2023-03-13T11:12:18;100765.34;;;16.08;62.75
13974;BME280;7060;43.770;4.008;2023-03-13T11:14:47;100750.84;;;16.09;62.88
13974;BME280;7060;43.770;4.008;2023-03-13T11:17:31;100751.19;;;16.06;62.91
13974;BME280;7060;43.770;4.008;2023-03-13T11:20:21;100753.91;;;16.06;63.52
13974;BME280;7060;43.770;4.008;2023-03-13T11:23:07;100748.09;;;15.95;64.34
13974;BME280;7060;43.770;4.008;2023-03-13T11:25:42;100743.59;;;15.87;64.68
13974;BME280;7060;43.770;4.008;2023-03-13T11:28:21;100746.31;;;15.87;64.98
13974;BME280;7060;43.770;4.008;2023-03-13T11:31:01;100743.97;;;15.84;65.10
13974;BME280;7060;43.770;4.008;2023-03-13T11:33:38;100740.44;;;15.83;65.34
13974;BME280;7060;43.770;4.008;2023-03-13T11:36:20;100712.59;;;15.68;65.41
13974;BME280;7060;43.770;4.008;2023-03-13T11:38:59;100742.09;;;15.84;65.50
13974;BME280;7060;43.770;4.008;2023-03-13T11:41:41;100742.47;;;15.81;65.79
13974;BME280;7060;43.770;4.008;2023-03-13T11:44:22;100742.63;;;15.80;66.20
13974;BME280;7060;43.770;4.008;2023-03-13T11:47:09;100736.41;;;15.79;66.42
13974;BME280;7060;43.770;4.008;2023-03-13T11:49:54;100740.78;;;15.80;66.66
13974;BME280;7060;43.770;4.008;2023-03-13T11:52:36;100740.59;;;15.82;66.87
13974;BME280;7060;43.770;4.008;2023-03-13T11:55:33;100728.09;;;15.89;67.17
13974;BME280;7060;43.770;4.008;2023-03-13T12:01:02;100709.34;;;15.96;67.57
13974;BME280;7060;43.770;4.008;2023-03-13T12:03:37;100709.78;;;15.99;67.46
13974;BME280;7060;43.770;4.008;2023-03-13T12:06:21;100699.13;;;16.06;67.39
13974;BME280;7060;43.770;4.008;2023-03-13T12:08:59;100694.09;;;16.03;67.25
13974;BME280;7060;43.770;4.008;2023-03-13T12:11:36;100682.47;;;16.02;67.03
13974;BME280;7060;43.770;4.008;2023-03-13T12:14:13;100686.19;;;16.01;67.30
13974;BME280;7060;43.770;4.008;2023-03-13T12:16:46;100660.41;;;15.99;67.26
13974;BME280;7060;43.770;4.008;2023-03-13T12:19:21;100659.56;;;15.98;67.30
13974;BME280;7060;43.770;4.008;2023-03-13T12:21:52;100648.59;;;16.00;67.17
13974;BME280;7060;43.770;4.008;2023-03-13T12:24:27;100639.03;;;15.97;67.04
13974;BME280;7060;43.770;4.008;2023-03-13T12:27:02;100640.88;;;15.97;67.53
13974;BME280;7060;43.770;4.008;2023-03-13T12:29:43;100630.56;;;16.00;67.60
13974;BME280;7060;43.770;4.008;2023-03-13T12:32:19;100625.41;;;16.13;67.63
13974;BME280;7060;43.770;4.008;2023-03-13T12:34:58;100620.53;;;16.23;67.52
13974;BME280;7060;43.770;4.008;2023-03-13T12:37:35;100614.69;;;16.35;67.24
13974;BME280;7060;43.770;4.008;2023-03-13T12:40:13;100615.16;;;16.38;67.54
13974;BME280;7060;43.770;4.008;2023-03-13T12:42:50;100600.75;;;16.46;67.13
13974;BME280;7060;43.770;4.008;2023-03-13T12:45:24;100584.38;;;16.47;66.43
13974;BME280;7060;43.770;4.008;2023-03-13T12:48:15;100579.41;;;16.51;66.58
13974;BME280;7060;43.770;4.008;2023-03-13T12:51:03;100560.34;;;16.52;66.49
13974;BME280;7060;43.770;4.008;2023-03-13T12:56:42;100554.94;;;16.52;66.17
13974;BME280;7060;43.770;4.008;2023-03-13T12:59:17;100547.44;;;16.48;66.13
13974;BME280;7060;43.770;4.008;2023-03-13T13:01:50;100537.75;;;16.39;66.02
13974;BME280;7060;43.770;4.008;2023-03-13T13:04:22;100530.31;;;16.41;65.98
13974;BME280;7060;43.770;4.008;2023-03-13T13:06:55;100527.53;;;16.49;65.79
13974;BME280;7060;43.770;4.008;2023-03-13T13:09:27;100468.09;;;16.27;65.44
13974;BME280;7060;43.770;4.008;2023-03-13T13:11:59;100495.66;;;16.59;66.02
13974;BME280;7060;43.770;4.008;2023-03-13T13:20:42;100480.06;;;16.40;65.51
13974;BME280;7060;43.770;4.008;2023-03-13T13:32:40;100459.63;;;16.31;66.45
13974;BME280;7060;43.770;4.008;2023-03-13T13:38:31;100449.22;;;16.27;66.21
13974;BME280;7060;43.770;4.008;2023-03-13T13:41:26;100433.22;;;16.26;66.41
13974;BME280;7060;43.770;4.008;2023-03-13T13:46:57;100433.28;;;16.33;66.74
13974;BME280;7060;43.770;4.008;2023-03-13T13:49:31;100435.44;;;16.37;66.60
13974;BME280;7060;43.770;4.008;2023-03-13T13:55:33;100447.81;;;16.32;66.57
13974;BME280;7060;43.770;4.008;2023-03-13T13:58:19;100452.19;;;16.33;66.79
13974;BME280;7060;43.770;4.008;2023-03-13T14:00:52;100455.91;;;16.32;66.76
13974;BME280;7060;43.770;4.008;2023-03-13T14:03:23;100445.09;;;16.32;66.54
13974;BME280;7060;43.770;4.008;2023-03-13T14:05:55;100442.41;;;16.32;66.45
13974;BME280;7060;43.770;4.008;2023-03-13T14:08:26;100432.00;;;16.29;66.45
13974;BME280;7060;43.770;4.008;2023-03-13T14:11:21;100427.81;;;16.26;66.62